createdAt,value
2023-02-19T00:01:47.281Z,84.30
2023-02-19T00:04:19.652Z,84.40
2023-02-19T00:06:48.256Z,84.31
2023-02-19T00:09:17.429Z,84.29
2023-02-19T00:11:46.623Z,84.07
2023-02-19T00:14:15.761Z,84.00
2023-02-19T00:16:44.003Z,84.26
2023-02-19T00:19:13.173Z,84.33
2023-02-19T00:21:41.169Z,84.26
2023-02-19T00:24:11.492Z,84.30
2023-02-19T00:26:40.963Z,84.45
2023-02-19T00:29:09.816Z,84.24
2023-02-19T00:31:37.918Z,84.20
2023-02-19T00:34:06.510Z,83.84
2023-02-19T00:36:36.775Z,83.87
2023-02-19T00:39:05.144Z,83.81
2023-02-19T00:41:33.232Z,83.76
2023-02-19T00:44:02.519Z,83.32
2023-02-19T00:46:31.944Z,83.36
2023-02-19T00:49:00.308Z,83.20
2023-02-19T00:51:29.704Z,82.97
2023-02-19T00:53:58.390Z,82.75
2023-02-19T00:56:26.872Z,82.64
2023-02-19T00:58:54.805Z,82.31
2023-02-19T01:01:22.849Z,82.33
2023-02-19T01:03:52.365Z,82.16
2023-02-19T01:06:20.693Z,81.95
2023-02-19T01:08:49.175Z,81.79
2023-02-19T01:11:18.074Z,81.40
2023-02-19T01:13:46.040Z,81.18
2023-02-19T01:16:15.794Z,81.14
2023-02-19T01:18:44.431Z,81.30
2023-02-19T01:21:13.830Z,81.30
2023-02-19T01:23:42.431Z,80.99
2023-02-19T01:26:12.958Z,80.80
2023-02-19T01:28:40.894Z,80.56
2023-02-19T01:31:12.309Z,80.50
2023-02-19T01:33:40.642Z,80.46
2023-02-19T01:36:08.821Z,79.81
2023-02-19T01:38:36.789Z,79.81
2023-02-19T01:41:06.645Z,79.53
2023-02-19T01:43:53.614Z,79.39
2023-02-19T01:46:21.637Z,79.48
2023-02-19T01:48:49.768Z,79.26
2023-02-19T01:51:19.990Z,79.44
2023-02-19T01:53:49.692Z,79.16
2023-02-19T01:56:18.998Z,79.11
2023-02-19T01:58:47.172Z,79.19
2023-02-19T02:01:15.474Z,78.64
2023-02-19T02:03:45.358Z,78.29
2023-02-19T02:06:39.652Z,78.12
2023-02-19T02:09:26.268Z,78.05
2023-02-19T02:11:54.534Z,78.06
2023-02-19T02:14:25.887Z,77.99
2023-02-19T02:17:10.148Z,77.91
2023-02-19T02:19:57.255Z,77.85
2023-02-19T02:22:44.886Z,77.50
2023-02-19T02:25:28.833Z,77.24
2023-02-19T02:28:15.844Z,76.91
2023-02-19T02:30:45.552Z,76.65
2023-02-19T02:33:31.748Z,76.50
2023-02-19T02:36:07.119Z,76.18
2023-02-19T02:38:37.826Z,76.12
2023-02-19T02:41:06.754Z,75.73
2023-02-19T02:43:35.199Z,75.76
2023-02-19T02:46:04.633Z,75.71
2023-02-19T02:48:37.182Z,75.59
2023-02-19T02:51:24.111Z,75.28
2023-02-19T02:54:20.634Z,75.17
2023-02-19T02:56:50.395Z,74.67
2023-02-19T02:59:20.456Z,74.47
2023-02-19T03:02:14.548Z,74.36
2023-02-19T03:05:04.632Z,73.77
2023-02-19T03:07:39.151Z,73.47
2023-02-19T03:10:10.611Z,73.37
2023-02-19T03:12:59.379Z,73.37
2023-02-19T03:15:48.633Z,73.31
2023-02-19T03:18:37.104Z,73.44
2023-02-19T03:21:07.376Z,73.95
2023-02-19T03:23:54.520Z,74.03
2023-02-19T03:26:22.799Z,73.96
2023-02-19T03:29:12.028Z,74.02
2023-02-19T03:31:43.270Z,74.05
2023-02-19T03:34:14.861Z,74.09
2023-02-19T03:36:45.768Z,74.18
2023-02-19T03:39:15.932Z,74.09
2023-02-19T03:41:47.074Z,74.02
2023-02-19T03:44:18.229Z,73.89
2023-02-19T03:47:10.152Z,73.97
2023-02-19T03:49:43.848Z,74.11
2023-02-19T03:52:17.000Z,74.21
2023-02-19T03:54:51.156Z,74.08
2023-02-19T03:57:22.206Z,74.00
2023-02-19T03:59:59.489Z,74.01
2023-02-19T04:02:41.762Z,73.72
2023-02-19T04:05:09.961Z,73.43
2023-02-19T04:07:41.640Z,73.38
2023-02-19T04:10:10.306Z,73.27
2023-02-19T04:12:43.810Z,72.95
2023-02-19T04:15:14.757Z,73.01
2023-02-19T04:17:46.118Z,73.08
2023-02-19T04:20:14.478Z,73.20
2023-02-19T04:22:42.653Z,73.28
2023-02-19T04:25:11.036Z,73.50
2023-02-19T04:27:39.115Z,73.92
2023-02-19T04:30:08.851Z,74.01
2023-02-19T04:32:36.875Z,74.30
2023-02-19T04:35:05.066Z,74.60
2023-02-19T04:37:33.016Z,74.82
2023-02-19T04:40:00.998Z,74.91
2023-02-19T04:42:28.960Z,74.96
2023-02-19T04:44:56.824Z,75.11
2023-02-19T04:47:24.774Z,75.22
2023-02-19T04:49:52.971Z,75.16
2023-02-19T04:52:20.838Z,75.25
2023-02-19T04:54:49.003Z,75.23
2023-02-19T04:57:16.877Z,75.16
2023-02-19T04:59:46.141Z,75.22
2023-02-19T05:02:14.064Z,75.03
2023-02-19T05:04:42.061Z,74.92
2023-02-19T05:07:10.182Z,75.06
2023-02-19T05:09:38.162Z,74.98
2023-02-19T05:12:06.150Z,74.41
2023-02-19T05:14:34.097Z,74.18
2023-02-19T05:17:02.172Z,74.32
2023-02-19T05:19:30.133Z,74.40
2023-02-19T05:21:58.108Z,74.25
2023-02-19T05:24:27.713Z,73.95
2023-02-19T05:26:55.890Z,74.04
2023-02-19T05:29:23.711Z,74.23
2023-02-19T05:31:51.867Z,73.72
2023-02-19T05:34:21.330Z,74.06
2023-02-19T05:36:49.302Z,74.50
2023-02-19T05:39:17.167Z,74.47
2023-02-19T05:41:45.148Z,74.31
2023-02-19T05:44:12.984Z,73.56
2023-02-19T05:46:40.994Z,73.08
2023-02-19T05:49:08.944Z,73.03
2023-02-19T05:51:36.868Z,73.21
2023-02-19T05:54:04.880Z,73.30
2023-02-19T05:56:42.585Z,73.68
2023-02-19T05:59:17.925Z,74.09
2023-02-19T06:01:46.094Z,73.71
2023-02-19T06:04:14.888Z,73.03
2023-02-19T06:06:43.266Z,73.15
2023-02-19T06:09:11.536Z,73.05
2023-02-19T06:11:40.046Z,72.76
2023-02-19T06:14:07.990Z,72.75
2023-02-19T06:16:35.958Z,74.40
2023-02-19T06:19:04.652Z,74.80
2023-02-19T06:21:32.627Z,73.82
2023-02-19T06:24:04.577Z,73.46
2023-02-19T06:26:32.582Z,73.23
2023-02-19T06:29:00.522Z,73.06
2023-02-19T06:31:28.676Z,73.06
2023-02-19T06:33:56.784Z,73.19
2023-02-19T06:36:25.147Z,73.20
2023-02-19T06:38:53.247Z,73.44
2023-02-19T06:41:21.360Z,73.43
2023-02-19T06:43:49.363Z,72.58
2023-02-19T06:46:17.343Z,72.18
2023-02-19T06:48:45.578Z,72.61
2023-02-19T06:51:15.424Z,72.57
2023-02-19T06:53:43.390Z,72.33
2023-02-19T06:56:26.224Z,71.51
2023-02-19T06:58:55.308Z,70.38
2023-02-19T07:01:23.685Z,69.57
2023-02-19T07:03:52.839Z,69.23
2023-02-19T07:06:21.954Z,69.51
2023-02-19T07:08:50.470Z,69.00
2023-02-19T07:11:19.028Z,68.73
2023-02-19T07:13:47.073Z,68.38
2023-02-19T07:16:15.503Z,68.35
2023-02-19T07:18:43.558Z,67.97
2023-02-19T07:21:13.304Z,67.45
2023-02-19T07:23:42.373Z,67.69
2023-02-19T07:26:14.222Z,67.60
2023-02-19T07:28:43.025Z,67.15
2023-02-19T07:31:11.887Z,67.19
2023-02-19T07:33:40.286Z,67.15
2023-02-19T07:36:08.669Z,66.97
2023-02-19T07:38:36.644Z,66.71
2023-02-19T07:41:05.998Z,66.66
2023-02-19T07:43:35.444Z,66.45
2023-02-19T07:46:13.444Z,66.24
2023-02-19T07:48:42.861Z,66.05
2023-02-19T07:51:12.942Z,65.67
2023-02-19T07:53:41.139Z,65.18
2023-02-19T07:56:10.775Z,65.00
2023-02-19T07:58:38.917Z,65.11
2023-02-19T08:01:17.605Z,64.91
2023-02-19T08:03:45.950Z,64.72
2023-02-19T08:06:14.003Z,64.92
2023-02-19T08:08:41.977Z,65.23
2023-02-19T08:11:28.766Z,65.37
2023-02-19T08:13:56.750Z,65.84
2023-02-19T08:16:40.871Z,66.06
2023-02-19T08:19:10.938Z,66.19
2023-02-19T08:21:39.011Z,66.37
2023-02-19T08:24:07.165Z,66.86
2023-02-19T08:26:35.440Z,67.43
2023-02-19T08:29:04.118Z,67.47
2023-02-19T08:31:32.972Z,67.46
2023-02-19T08:34:01.094Z,67.32
2023-02-19T08:36:29.158Z,67.41
2023-02-19T08:38:57.119Z,67.70
2023-02-19T08:41:25.088Z,67.91
2023-02-19T08:43:53.174Z,67.99
2023-02-19T08:46:22.846Z,68.78
2023-02-19T08:48:51.250Z,71.06
2023-02-19T08:51:19.343Z,69.78
2023-02-19T08:53:47.299Z,69.31
2023-02-19T08:56:16.387Z,68.58
2023-02-19T08:58:44.578Z,69.75
2023-02-19T09:01:14.559Z,67.87
2023-02-19T09:03:42.956Z,67.02
2023-02-19T09:06:15.948Z,66.46
2023-02-19T09:08:43.790Z,64.53
2023-02-19T09:11:12.334Z,63.72
2023-02-19T09:13:40.774Z,62.99
2023-02-19T09:16:08.875Z,62.52
2023-02-19T09:18:37.141Z,62.67
2023-02-19T09:21:06.028Z,62.61
2023-02-19T09:23:34.694Z,61.75
2023-02-19T09:26:06.905Z,61.14
2023-02-19T09:28:35.088Z,60.32
2023-02-19T09:31:06.501Z,60.59
2023-02-19T09:33:34.665Z,61.06
2023-02-19T09:36:03.474Z,61.92
2023-02-19T09:38:31.532Z,61.90
2023-02-19T09:41:00.218Z,62.01
2023-02-19T09:43:30.037Z,61.18
2023-02-19T09:46:09.338Z,61.52
2023-02-19T09:48:37.653Z,61.64
2023-02-19T09:51:08.122Z,61.19
2023-02-19T09:53:40.956Z,60.81
2023-02-19T09:56:08.974Z,60.71
2023-02-19T09:58:57.175Z,60.12
2023-02-19T10:01:27.235Z,59.97
2023-02-19T10:03:55.255Z,60.22
2023-02-19T10:06:24.758Z,60.19
2023-02-19T10:08:55.387Z,59.48
2023-02-19T10:11:26.026Z,59.42
2023-02-19T10:14:02.388Z,61.54
2023-02-19T10:16:30.390Z,63.51
2023-02-19T10:18:58.332Z,62.45
2023-02-19T10:21:27.942Z,61.59
2023-02-19T10:23:58.107Z,61.74
2023-02-19T10:29:54.648Z,61.57
2023-02-19T10:32:24.551Z,60.60
2023-02-19T10:35:18.942Z,60.25
2023-02-19T10:37:49.161Z,59.83
2023-02-19T10:40:20.932Z,59.35
2023-02-19T10:42:50.324Z,59.57
2023-02-19T10:45:44.511Z,59.53
2023-02-19T10:48:21.914Z,59.78
2023-02-19T10:50:56.118Z,60.73
2023-02-19T10:53:35.485Z,61.06
2023-02-19T10:56:11.976Z,59.11
2023-02-19T10:58:42.496Z,58.60
2023-02-19T11:01:29.511Z,58.98
2023-02-19T11:04:23.362Z,59.97
2023-02-19T11:06:51.716Z,59.52
2023-02-19T11:09:25.995Z,57.92
2023-02-19T11:11:55.318Z,58.27
2023-02-19T11:14:24.493Z,58.44
2023-02-19T11:16:52.609Z,58.54
2023-02-19T11:19:25.836Z,58.36
2023-02-19T11:21:54.126Z,58.73
2023-02-19T11:24:37.403Z,58.64
2023-02-19T11:27:07.213Z,58.92
2023-02-19T11:29:35.692Z,59.46
2023-02-19T11:32:32.953Z,58.73
2023-02-19T11:35:19.058Z,59.15
2023-02-19T11:37:54.119Z,58.66
2023-02-19T11:40:25.024Z,58.18
2023-02-19T11:43:00.226Z,57.60
2023-02-19T11:45:31.311Z,57.08
2023-02-19T11:48:30.268Z,57.34
2023-02-19T11:51:15.168Z,57.46
2023-02-19T11:53:49.647Z,57.60
2023-02-19T11:56:24.038Z,57.64
2023-02-19T11:58:51.864Z,57.82
2023-02-19T12:01:23.021Z,57.64
2023-02-19T12:04:09.731Z,57.76
2023-02-19T12:06:40.770Z,58.00
2023-02-19T12:09:18.732Z,58.41
2023-02-19T12:11:53.680Z,58.57
2023-02-19T12:14:21.680Z,58.92
2023-02-19T12:17:08.391Z,59.30
2023-02-19T12:19:55.101Z,59.18
2023-02-19T12:22:26.028Z,59.42
2023-02-19T12:25:12.498Z,59.70
2023-02-19T12:27:47.080Z,60.10
2023-02-19T12:30:31.951Z,60.28
2023-02-19T12:33:13.236Z,60.22
2023-02-19T12:35:48.010Z,59.98
2023-02-19T12:38:23.481Z,59.81
2023-02-19T12:40:57.115Z,59.50
2023-02-19T12:43:25.367Z,59.55
2023-02-19T12:46:01.998Z,59.40
2023-02-19T12:48:32.984Z,59.07
2023-02-19T12:51:05.859Z,58.73
2023-02-19T12:53:33.926Z,58.68
2023-02-19T12:56:05.593Z,58.79
2023-02-19T12:58:39.741Z,59.11
2023-02-19T13:01:10.180Z,58.47
2023-02-19T13:03:41.481Z,58.01
2023-02-19T13:06:15.898Z,58.50
2023-02-19T13:09:10.191Z,58.66
2023-02-19T13:11:47.277Z,57.71
2023-02-19T13:14:18.409Z,56.56
2023-02-19T13:16:50.845Z,56.03
2023-02-19T13:19:18.891Z,55.86
2023-02-19T13:22:09.872Z,55.66
2023-02-19T13:24:41.008Z,55.83
2023-02-19T13:27:09.704Z,55.96
2023-02-19T13:29:37.668Z,56.23
2023-02-19T13:32:05.708Z,56.03
2023-02-19T13:34:48.379Z,56.27
2023-02-19T13:37:16.861Z,56.15
2023-02-19T13:39:50.234Z,56.23
2023-02-19T13:42:29.063Z,56.42
2023-02-19T13:44:58.589Z,56.70
2023-02-19T13:47:45.481Z,57.03
2023-02-19T13:50:22.855Z,57.65
2023-02-19T13:53:00.884Z,58.39
2023-02-19T13:55:46.245Z,59.56
2023-02-19T13:58:33.061Z,60.70
2023-02-19T14:01:02.353Z,61.91
2023-02-19T14:03:39.763Z,63.05
2023-02-19T14:06:08.734Z,64.04
2023-02-19T14:09:02.831Z,65.22
2023-02-19T14:11:42.974Z,66.36
2023-02-19T14:14:23.408Z,66.58
2023-02-19T14:16:54.583Z,67.65
2023-02-19T14:19:41.086Z,68.23
2023-02-19T14:22:27.805Z,68.62
2023-02-19T14:24:56.164Z,69.31
2023-02-19T14:27:25.510Z,69.41
2023-02-19T14:29:53.586Z,69.47
2023-02-19T14:32:21.842Z,69.18
2023-02-19T14:34:49.898Z,69.92
2023-02-19T14:37:19.810Z,70.53
2023-02-19T14:39:48.189Z,71.37
2023-02-19T14:42:17.714Z,71.63
2023-02-19T14:44:48.532Z,73.07
2023-02-19T14:47:18.756Z,74.76
2023-02-19T14:49:47.027Z,75.48
2023-02-19T14:52:21.141Z,76.37
2023-02-19T14:54:52.071Z,76.91
2023-02-19T14:57:25.616Z,77.11
2023-02-19T14:59:55.409Z,77.58
2023-02-19T15:02:26.168Z,77.89
2023-02-19T15:04:54.868Z,78.17
2023-02-19T15:07:29.851Z,78.50
2023-02-19T15:10:04.988Z,78.07
2023-02-19T15:12:35.307Z,78.33
2023-02-19T15:15:04.906Z,78.83
2023-02-19T15:17:34.517Z,78.67
2023-02-19T15:20:09.448Z,78.82
2023-02-19T15:22:40.058Z,78.97
2023-02-19T15:25:08.569Z,79.58
2023-02-19T15:27:37.565Z,80.27
2023-02-19T15:30:16.624Z,80.89
2023-02-19T15:32:51.923Z,80.66
2023-02-19T15:35:21.483Z,80.21
2023-02-19T15:37:50.028Z,79.69
2023-02-19T15:40:19.942Z,79.68
2023-02-19T15:42:48.008Z,80.20
2023-02-19T15:45:15.878Z,80.19
2023-02-19T15:47:49.224Z,80.50
2023-02-19T15:50:28.714Z,80.21
2023-02-19T15:53:03.853Z,79.86
2023-02-19T15:55:34.902Z,79.64
2023-02-19T15:58:02.861Z,79.71
2023-02-19T16:00:48.759Z,79.52
2023-02-19T16:03:19.282Z,79.01
2023-02-19T16:05:57.800Z,79.15
2023-02-19T16:08:30.947Z,79.46
2023-02-19T16:11:00.498Z,79.77
2023-02-19T16:13:30.106Z,79.92
2023-02-19T16:16:04.045Z,80.54
2023-02-19T16:18:32.396Z,80.56
2023-02-19T16:21:01.493Z,80.76
2023-02-19T16:23:29.389Z,80.90
2023-02-19T16:26:02.242Z,80.59
2023-02-19T16:28:34.966Z,80.30
2023-02-19T16:31:04.772Z,79.92
2023-02-19T16:33:33.135Z,80.21
2023-02-19T16:36:20.398Z,80.51
2023-02-19T16:39:09.814Z,80.83
2023-02-19T16:41:57.747Z,80.55
2023-02-19T16:44:28.492Z,80.69
2023-02-19T16:47:13.893Z,81.17
2023-02-19T16:49:42.958Z,81.31
2023-02-19T16:52:15.735Z,81.57
2023-02-19T16:54:43.700Z,81.28
2023-02-19T16:57:11.770Z,80.76
2023-02-19T16:59:39.793Z,80.73
2023-02-19T17:02:10.474Z,81.48
2023-02-19T17:04:39.568Z,82.08
2023-02-19T17:07:09.074Z,82.53
2023-02-19T17:09:37.042Z,83.13
2023-02-19T17:12:05.944Z,83.75
2023-02-19T17:14:33.902Z,83.79
2023-02-19T17:17:02.493Z,83.74
2023-02-19T17:19:30.672Z,83.80
2023-02-19T17:21:58.980Z,83.88
2023-02-19T17:24:26.818Z,83.91
2023-02-19T17:26:54.779Z,84.35
2023-02-19T17:29:22.958Z,84.85
2023-02-19T17:31:51.674Z,84.96
2023-02-19T17:34:19.720Z,85.49
2023-02-19T17:36:48.390Z,85.42
2023-02-19T17:39:18.618Z,85.48
2023-02-19T17:41:46.695Z,84.94
2023-02-19T17:44:14.861Z,84.05
2023-02-19T17:46:42.826Z,83.47
2023-02-19T17:49:12.564Z,83.03
2023-02-19T17:51:40.551Z,82.15
2023-02-19T17:54:09.643Z,81.92
2023-02-19T17:56:40.152Z,81.59
2023-02-19T17:59:08.048Z,81.50
2023-02-19T18:01:36.119Z,81.16
2023-02-19T18:04:04.386Z,81.08
2023-02-19T18:06:32.426Z,81.08
2023-02-19T18:09:00.392Z,81.33
2023-02-19T18:11:28.461Z,81.17
2023-02-19T18:13:56.750Z,81.61
2023-02-19T18:16:24.741Z,82.20
2023-02-19T18:18:53.299Z,82.96
2023-02-19T18:21:23.645Z,82.56
2023-02-19T18:23:51.671Z,83.36
2023-02-19T18:26:20.920Z,84.21
2023-02-19T18:28:48.860Z,84.94
2023-02-19T18:31:16.796Z,85.07
2023-02-19T18:33:45.149Z,85.62
2023-02-19T18:36:13.390Z,86.50
2023-02-19T18:38:42.271Z,87.29
2023-02-19T18:41:14.094Z,87.33
2023-02-19T18:43:42.424Z,87.11
2023-02-19T18:46:10.928Z,86.84
2023-02-19T18:48:38.998Z,86.92
2023-02-19T18:51:10.910Z,86.91
2023-02-19T18:53:39.236Z,86.87
2023-02-19T18:56:09.114Z,86.94
2023-02-19T18:58:37.081Z,86.36
2023-02-19T19:01:05.192Z,84.46
2023-02-19T19:03:33.224Z,80.10
2023-02-19T19:06:01.249Z,78.10
2023-02-19T19:08:30.675Z,77.18
2023-02-19T19:10:58.786Z,76.30
2023-02-19T19:13:26.763Z,76.01
2023-02-19T19:15:54.954Z,76.16
2023-02-19T19:18:25.350Z,76.04
2023-02-19T19:20:56.817Z,76.01
2023-02-19T19:23:24.771Z,76.92
2023-02-19T19:25:54.682Z,76.93
2023-02-19T19:28:23.368Z,77.34
2023-02-19T19:30:51.589Z,77.47
2023-02-19T19:33:20.355Z,77.65
2023-02-19T19:35:48.541Z,78.33
2023-02-19T19:38:16.767Z,78.81
2023-02-19T19:40:46.597Z,79.03
2023-02-19T19:43:15.279Z,79.59
2023-02-19T19:45:43.257Z,79.98
2023-02-19T19:48:11.445Z,80.55
2023-02-19T19:50:39.498Z,80.11
2023-02-19T19:53:07.465Z,80.56
2023-02-19T19:55:35.343Z,81.14
2023-02-19T19:58:03.307Z,80.60
2023-02-19T20:00:31.292Z,80.98
2023-02-19T20:02:59.477Z,81.40
2023-02-19T20:05:27.459Z,81.48
2023-02-19T20:07:55.386Z,81.47
2023-02-19T20:10:23.451Z,81.00
2023-02-19T20:12:51.423Z,80.55
2023-02-19T20:15:20.840Z,80.90
2023-02-19T20:17:49.452Z,82.23
2023-02-19T20:20:21.569Z,82.68
2023-02-19T20:22:50.157Z,83.22
2023-02-19T20:25:19.152Z,83.24
2023-02-19T20:27:50.914Z,83.35
2023-02-19T20:30:20.343Z,83.07
2023-02-19T20:32:48.392Z,83.99
2023-02-19T20:35:17.276Z,84.31
2023-02-19T20:37:48.008Z,84.25
2023-02-19T20:40:17.627Z,84.30
2023-02-19T20:42:45.588Z,84.44
2023-02-19T20:45:16.851Z,84.59
2023-02-19T20:47:44.829Z,84.12
2023-02-19T20:50:12.984Z,83.51
2023-02-19T20:52:40.944Z,83.70
2023-02-19T20:55:09.536Z,83.84
2023-02-19T20:57:38.015Z,83.45
2023-02-19T21:00:06.929Z,83.40
2023-02-19T21:02:35.211Z,83.43
2023-02-19T21:05:03.468Z,83.50
2023-02-19T21:07:31.568Z,83.37
2023-02-19T21:09:59.620Z,83.09
2023-02-19T21:12:27.573Z,82.87
2023-02-19T21:14:55.536Z,82.64
2023-02-19T21:17:23.432Z,82.78
2023-02-19T21:19:51.376Z,82.93
2023-02-19T21:22:19.346Z,82.93
2023-02-19T21:24:52.067Z,82.34
2023-02-19T21:27:20.711Z,82.99
2023-02-19T21:29:48.684Z,81.50
2023-02-19T21:32:16.761Z,81.19
2023-02-19T21:34:44.983Z,81.36
2023-02-19T21:37:13.104Z,81.54
2023-02-19T21:39:42.919Z,81.61
2023-02-19T21:42:10.995Z,82.16
2023-02-19T21:44:38.979Z,82.64
2023-02-19T21:47:07.028Z,83.23
2023-02-19T21:49:35.105Z,83.45
2023-02-19T21:52:02.993Z,83.50
2023-02-19T21:54:30.916Z,83.63
2023-02-19T21:57:01.677Z,83.63
2023-02-19T21:59:29.737Z,83.72
2023-02-19T22:01:57.909Z,83.58
2023-02-19T22:04:25.796Z,83.45
2023-02-19T22:06:56.753Z,83.68
2023-02-19T22:09:24.934Z,83.81
2023-02-19T22:11:53.173Z,84.04
2023-02-19T22:14:21.039Z,84.17
2023-02-19T22:16:49.049Z,84.25
2023-02-19T22:19:17.184Z,84.47
2023-02-19T22:21:45.348Z,84.28
2023-02-19T22:24:17.665Z,84.23
2023-02-19T22:26:46.276Z,84.01
2023-02-19T22:29:15.304Z,84.17
2023-02-19T22:31:43.790Z,84.26
2023-02-19T22:34:12.264Z,84.19
2023-02-19T22:36:40.647Z,84.29
2023-02-19T22:39:14.844Z,84.24
2023-02-19T22:41:43.135Z,84.11
2023-02-19T22:44:11.354Z,84.16
2023-02-19T22:46:39.278Z,83.86
2023-02-19T22:49:07.865Z,83.48
2023-02-19T22:51:35.830Z,83.11
2023-02-19T22:54:03.843Z,83.13
2023-02-19T22:56:31.878Z,82.48
2023-02-19T22:59:00.057Z,81.85
2023-02-19T23:01:28.036Z,81.24
2023-02-19T23:03:57.707Z,80.76
2023-02-19T23:06:30.322Z,80.20
2023-02-19T23:08:58.993Z,79.95
2023-02-19T23:11:28.810Z,79.94
2023-02-19T23:13:57.189Z,79.76
2023-02-19T23:16:25.603Z,79.24
2023-02-19T23:18:53.644Z,78.18
2023-02-19T23:21:22.852Z,77.82
2023-02-19T23:23:51.018Z,77.15
2023-02-19T23:26:19.703Z,76.92
2023-02-19T23:28:47.774Z,76.97
2023-02-19T23:31:16.377Z,76.87
2023-02-19T23:33:45.359Z,76.46
2023-02-19T23:36:14.124Z,76.68
2023-02-19T23:38:46.511Z,76.78
2023-02-19T23:41:15.231Z,76.86
2023-02-19T23:43:43.363Z,77.05
2023-02-19T23:46:17.387Z,76.94
2023-02-19T23:48:46.493Z,76.70
2023-02-19T23:51:14.856Z,76.70
2023-02-19T23:53:42.722Z,76.16
2023-02-19T23:56:11.074Z,76.40
2023-02-19T23:58:39.573Z,76.31
